createdAt,value
2018-09-23T00:02:12.171Z,12.90
2018-09-23T00:04:41.008Z,12.90
2018-09-23T00:09:38.359Z,12.90
2018-09-23T00:12:07.214Z,12.90
2018-09-23T00:14:36.050Z,12.80
2018-09-23T00:17:04.890Z,12.80
2018-09-23T00:19:33.771Z,12.90
2018-09-23T00:22:02.619Z,12.90
2018-09-23T00:24:31.540Z,12.90
2018-09-23T00:27:00.369Z,12.80
2018-09-23T00:29:34.595Z,13.00
2018-09-23T00:34:31.933Z,13.10
2018-09-23T00:37:00.777Z,13.10
2018-09-23T00:39:29.614Z,13.10
2018-09-23T00:41:58.482Z,13.00
2018-09-23T00:44:27.325Z,13.00
2018-09-23T00:46:56.162Z,13.00
2018-09-23T00:49:25.040Z,13.10
2018-09-23T00:51:53.861Z,12.90
2018-09-23T00:54:22.753Z,12.80
2018-09-23T00:56:51.592Z,12.80
2018-09-23T00:59:20.421Z,12.80
2018-09-23T01:01:49.266Z,12.80
2018-09-23T01:04:18.110Z,12.90
2018-09-23T01:06:46.954Z,12.80
2018-09-23T01:09:15.798Z,12.90
2018-09-23T01:11:44.634Z,12.90
2018-09-23T01:14:13.506Z,12.80
2018-09-23T01:16:42.374Z,12.90
2018-09-23T01:19:11.295Z,12.90
2018-09-23T01:21:40.127Z,12.80
2018-09-23T01:24:08.979Z,12.80
2018-09-23T01:26:37.810Z,12.70
2018-09-23T01:31:35.163Z,12.60
2018-09-23T01:34:04.026Z,12.80
2018-09-23T01:36:32.880Z,12.80
2018-09-23T01:39:01.771Z,12.90
2018-09-23T01:41:31.165Z,13.00
2018-09-23T01:44:00.018Z,12.90
2018-09-23T01:48:57.366Z,13.00
2018-09-23T01:51:26.202Z,13.00
2018-09-23T01:53:55.098Z,13.00
2018-09-23T01:56:23.934Z,13.00
2018-09-23T01:58:52.782Z,13.00
2018-09-23T02:01:21.642Z,13.10
2018-09-23T02:03:50.530Z,13.10
2018-09-23T02:06:19.448Z,13.10
2018-09-23T02:08:48.307Z,13.10
2018-09-23T02:11:17.158Z,13.10
2018-09-23T02:13:46.018Z,13.00
2018-09-23T02:16:14.920Z,13.00
2018-09-23T02:18:43.766Z,13.00
2018-09-23T02:21:12.623Z,13.00
2018-09-23T02:23:41.534Z,13.10
2018-09-23T02:26:10.406Z,13.10
2018-09-23T02:28:39.318Z,13.10
2018-09-23T02:31:08.172Z,13.10
2018-09-23T02:33:37.021Z,13.10
2018-09-23T02:36:05.870Z,13.20
2018-09-23T02:38:34.730Z,13.20
2018-09-23T02:41:03.646Z,13.20
2018-09-23T02:46:00.998Z,13.20
2018-09-23T02:48:29.850Z,13.20
2018-09-23T02:50:58.698Z,13.20
2018-09-23T02:53:27.704Z,13.30
2018-09-23T02:55:56.506Z,13.20
2018-09-23T02:58:25.358Z,13.20
2018-09-23T03:00:54.214Z,13.30
2018-09-23T03:03:23.090Z,13.20
2018-09-23T03:08:20.422Z,13.20
2018-09-23T03:10:49.337Z,13.30
2018-09-23T03:13:18.228Z,13.30
2018-09-23T03:15:47.046Z,13.30
2018-09-23T03:18:15.889Z,13.80
2018-09-23T03:20:44.738Z,13.30
2018-09-23T03:23:13.624Z,13.30
2018-09-23T03:25:42.435Z,13.30
2018-09-23T03:28:11.281Z,13.30
2018-09-23T03:30:40.134Z,13.30
2018-09-23T03:33:08.980Z,13.30
2018-09-23T03:35:37.810Z,13.30
2018-09-23T03:38:06.951Z,13.30
2018-09-23T03:40:35.954Z,13.30
2018-09-23T03:43:04.834Z,13.30
2018-09-23T03:45:33.675Z,13.30
2018-09-23T03:48:02.553Z,13.20
2018-09-23T03:50:31.389Z,13.30
2018-09-23T03:53:00.234Z,13.30
2018-09-23T03:55:29.078Z,13.40
2018-09-23T03:57:57.956Z,13.30
2018-09-23T04:00:26.746Z,13.30
2018-09-23T04:05:24.090Z,13.30
2018-09-23T04:07:52.935Z,13.40
2018-09-23T04:10:21.780Z,13.30
2018-09-23T04:12:50.606Z,13.30
2018-09-23T04:15:19.492Z,13.20
2018-09-23T04:17:48.342Z,13.20
2018-09-23T04:20:17.150Z,13.20
2018-09-23T04:22:49.566Z,13.20
2018-09-23T04:27:48.702Z,13.30
2018-09-23T04:32:47.237Z,13.30
2018-09-23T04:35:16.575Z,13.30
2018-09-23T04:37:45.731Z,13.30
2018-09-23T04:40:14.718Z,13.40
2018-09-23T04:42:43.646Z,13.30
2018-09-23T04:45:12.550Z,13.30
2018-09-23T04:47:41.439Z,13.10
2018-09-23T04:50:10.334Z,13.10
2018-09-23T04:52:39.252Z,13.10
2018-09-23T04:55:08.111Z,12.90
2018-09-23T04:57:36.965Z,12.90
2018-09-23T05:00:05.922Z,12.90
2018-09-23T05:02:34.777Z,12.90
2018-09-23T05:05:03.664Z,12.80
2018-09-23T05:07:32.493Z,12.70
2018-09-23T05:10:01.359Z,12.80
2018-09-23T05:12:30.210Z,12.90
2018-09-23T05:14:59.466Z,12.90
2018-09-23T05:17:28.342Z,12.90
2018-09-23T05:19:57.247Z,12.70
2018-09-23T05:22:26.095Z,13.00
2018-09-23T05:24:54.958Z,13.00
2018-09-23T05:27:23.854Z,13.00
2018-09-23T05:29:52.721Z,13.00
2018-09-23T05:32:21.594Z,12.90
2018-09-23T05:34:50.438Z,12.90
2018-09-23T05:37:19.286Z,12.90
2018-09-23T05:39:48.125Z,12.80
2018-09-23T05:42:16.961Z,12.80
2018-09-23T05:44:46.151Z,12.60
2018-09-23T05:47:15.003Z,12.50
2018-09-23T05:49:43.842Z,12.50
2018-09-23T05:52:12.887Z,12.60
2018-09-23T05:54:41.739Z,12.60
2018-09-23T05:57:11.146Z,12.60
2018-09-23T05:59:39.994Z,12.60
2018-09-23T06:02:08.838Z,12.60
2018-09-23T06:04:37.690Z,12.80
2018-09-23T06:07:06.540Z,12.80
2018-09-23T06:09:35.378Z,12.80
2018-09-23T06:12:04.218Z,12.80
2018-09-23T06:14:33.106Z,12.90
2018-09-23T06:17:02.023Z,13.00
2018-09-23T06:19:30.876Z,12.80
2018-09-23T06:21:59.930Z,12.80
2018-09-23T06:24:28.761Z,12.80
2018-09-23T06:26:57.582Z,12.90
2018-09-23T06:29:26.434Z,13.00
2018-09-23T06:31:55.330Z,12.90
2018-09-23T06:34:24.195Z,13.80
2018-09-23T06:36:53.180Z,13.00
2018-09-23T06:39:21.983Z,13.00
2018-09-23T06:41:50.831Z,12.90
2018-09-23T06:44:19.686Z,12.80
2018-09-23T06:46:48.533Z,12.80
2018-09-23T06:49:17.400Z,12.70
2018-09-23T06:51:46.251Z,12.70
2018-09-23T06:54:15.115Z,12.80
2018-09-23T06:56:43.992Z,13.00
2018-09-23T06:59:12.868Z,12.80
2018-09-23T07:01:41.686Z,12.90
2018-09-23T07:04:10.698Z,12.90
2018-09-23T07:06:39.607Z,13.00
2018-09-23T07:09:08.474Z,12.90
2018-09-23T07:11:37.330Z,12.90
2018-09-23T07:14:06.186Z,13.00
2018-09-23T07:16:35.058Z,13.10
2018-09-23T07:19:03.906Z,13.20
2018-09-23T07:21:32.754Z,13.20
2018-09-23T07:24:01.749Z,13.10
2018-09-23T07:26:30.518Z,13.30
2018-09-23T07:28:59.482Z,13.40
2018-09-23T07:31:28.492Z,13.40
2018-09-23T07:33:57.347Z,13.30
2018-09-23T07:36:26.210Z,13.40
2018-09-23T07:38:55.075Z,13.30
2018-09-23T07:41:23.926Z,13.40
2018-09-23T07:43:52.821Z,13.40
2018-09-23T07:46:21.674Z,13.40
2018-09-23T07:48:50.534Z,13.50
2018-09-23T07:51:19.386Z,13.50
2018-09-23T07:53:48.245Z,13.60
2018-09-23T07:56:17.147Z,13.80
2018-09-23T07:58:46.001Z,13.90
2018-09-23T08:01:14.863Z,14.00
2018-09-23T08:03:43.722Z,14.00
2018-09-23T08:06:12.572Z,14.00
2018-09-23T08:08:41.417Z,14.10
2018-09-23T08:11:10.274Z,14.10
2018-09-23T08:13:39.289Z,14.10
2018-09-23T08:16:07.989Z,14.20
2018-09-23T08:18:36.894Z,14.20
2018-09-23T08:21:05.744Z,14.20
2018-09-23T08:23:34.567Z,14.10
2018-09-23T08:26:03.669Z,14.10
2018-09-23T08:28:32.494Z,14.00
2018-09-23T08:31:01.358Z,14.10
2018-09-23T08:33:30.245Z,14.10
2018-09-23T08:35:59.494Z,14.00
2018-09-23T08:38:28.334Z,14.00
2018-09-23T08:40:57.173Z,14.10
2018-09-23T08:43:26.035Z,14.10
2018-09-23T08:45:54.893Z,14.00
2018-09-23T08:48:23.713Z,14.00
2018-09-23T08:50:52.537Z,13.90
2018-09-23T08:53:21.371Z,13.90
2018-09-23T08:55:50.207Z,14.00
2018-09-23T08:58:19.035Z,13.90
2018-09-23T09:00:47.866Z,13.90
2018-09-23T09:03:16.699Z,14.00
2018-09-23T09:05:45.543Z,14.20
2018-09-23T09:08:14.418Z,14.20
2018-09-23T09:10:43.262Z,13.80
2018-09-23T09:13:12.090Z,14.00
2018-09-23T09:15:40.930Z,14.10
2018-09-23T09:18:09.770Z,14.10
2018-09-23T09:20:38.603Z,14.00
2018-09-23T09:23:07.434Z,13.90
2018-09-23T09:25:36.271Z,13.70
2018-09-23T09:28:05.357Z,13.70
2018-09-23T09:30:34.239Z,13.90
2018-09-23T09:33:03.093Z,13.90
2018-09-23T09:35:31.939Z,14.10
2018-09-23T09:38:00.780Z,14.30
2018-09-23T09:40:29.638Z,14.50
2018-09-23T09:42:58.497Z,14.40
2018-09-23T09:45:27.450Z,14.30
2018-09-23T09:47:56.494Z,14.30
2018-09-23T09:50:25.355Z,14.30
2018-09-23T09:52:54.199Z,14.40
2018-09-23T09:55:23.079Z,14.50
2018-09-23T09:57:51.978Z,14.40
2018-09-23T10:00:26.274Z,14.40
2018-09-23T10:02:55.131Z,14.50
2018-09-23T10:05:23.990Z,14.30
2018-09-23T10:07:52.946Z,14.30
2018-09-23T10:10:21.810Z,14.10
2018-09-23T10:12:50.670Z,13.90
2018-09-23T10:15:19.522Z,13.80
2018-09-23T10:17:48.375Z,13.90
2018-09-23T10:20:17.227Z,13.80
2018-09-23T10:22:46.808Z,13.70
2018-09-23T10:25:15.571Z,13.70
2018-09-23T10:27:44.426Z,13.70
2018-09-23T10:30:13.285Z,13.50
2018-09-23T10:32:42.130Z,13.40
2018-09-23T10:35:11.630Z,13.50
2018-09-23T10:37:40.474Z,13.50
2018-09-23T10:40:09.328Z,13.40
2018-09-23T10:42:38.274Z,13.40
2018-09-23T10:45:07.119Z,13.30
2018-09-23T10:47:36.066Z,13.30
2018-09-23T10:50:05.066Z,13.30
2018-09-23T10:52:33.940Z,13.20
2018-09-23T10:55:02.802Z,13.10
2018-09-23T10:57:31.648Z,13.20
2018-09-23T11:00:00.477Z,13.20
2018-09-23T11:02:29.322Z,13.10
2018-09-23T11:04:58.159Z,13.00
2018-09-23T11:07:27.045Z,13.00
2018-09-23T11:09:55.892Z,13.00
2018-09-23T11:12:24.674Z,12.90
2018-09-23T11:14:53.520Z,12.90
2018-09-23T11:17:22.349Z,13.00
2018-09-23T11:19:51.182Z,12.90
2018-09-23T11:22:20.019Z,13.00
2018-09-23T11:24:48.913Z,12.80
2018-09-23T11:27:17.686Z,12.80
2018-09-23T11:29:46.517Z,12.80
2018-09-23T11:32:15.363Z,12.90
2018-09-23T11:34:44.250Z,13.00
2018-09-23T11:37:13.078Z,13.00
2018-09-23T11:39:41.906Z,12.80
2018-09-23T11:42:10.741Z,13.00
2018-09-23T11:44:39.570Z,12.90
2018-09-23T11:47:08.666Z,12.90
2018-09-23T11:49:37.495Z,12.90
2018-09-23T11:52:06.338Z,12.90
2018-09-23T11:54:35.207Z,12.80
2018-09-23T11:57:04.059Z,12.80
2018-09-23T11:59:32.890Z,12.80
2018-09-23T12:02:03.177Z,12.70
2018-09-23T12:04:32.050Z,12.70
2018-09-23T12:07:00.834Z,12.70
2018-09-23T12:09:29.665Z,12.70
2018-09-23T12:11:58.503Z,12.60
2018-09-23T12:14:27.330Z,12.60
2018-09-23T12:16:56.170Z,12.60
2018-09-23T12:19:25.025Z,12.50
2018-09-23T12:21:53.841Z,12.50
2018-09-23T12:24:22.682Z,12.50
2018-09-23T12:26:51.655Z,12.30
2018-09-23T12:29:20.487Z,12.30
2018-09-23T12:31:49.319Z,12.40
2018-09-23T12:34:18.170Z,12.30
2018-09-23T12:36:47.033Z,12.30
2018-09-23T12:39:15.886Z,12.40
2018-09-23T12:41:44.737Z,12.30
2018-09-23T12:44:13.575Z,12.30
2018-09-23T12:46:42.507Z,12.20
2018-09-23T12:49:11.350Z,12.30
2018-09-23T12:51:40.198Z,12.20
2018-09-23T12:54:09.038Z,12.20
2018-09-23T12:56:37.883Z,12.20
2018-09-23T12:59:06.725Z,12.20
2018-09-23T13:01:35.563Z,12.20
2018-09-23T13:04:04.406Z,12.20
2018-09-23T13:06:33.246Z,12.30
2018-09-23T13:09:02.099Z,12.30
2018-09-23T13:11:30.929Z,12.30
2018-09-23T13:13:59.777Z,12.30
2018-09-23T13:16:28.627Z,12.40
2018-09-23T13:18:57.474Z,12.30
2018-09-23T13:21:26.316Z,12.30
2018-09-23T13:23:55.163Z,12.40
2018-09-23T13:26:23.998Z,12.30
2018-09-23T13:28:52.855Z,12.30
2018-09-23T13:31:21.694Z,12.20
2018-09-23T13:33:51.077Z,12.10
2018-09-23T13:36:19.926Z,12.20
2018-09-23T13:38:48.828Z,12.20
2018-09-23T13:41:17.635Z,12.20
2018-09-23T13:43:46.498Z,12.40
2018-09-23T13:46:15.393Z,12.40
2018-09-23T13:48:44.255Z,12.40
2018-09-23T13:51:13.102Z,12.50
2018-09-23T13:53:41.954Z,12.50
2018-09-23T13:56:10.804Z,12.40
2018-09-23T13:58:39.650Z,12.30
2018-09-23T14:01:08.581Z,12.30
2018-09-23T14:03:37.434Z,12.30
2018-09-23T14:06:06.286Z,12.40
2018-09-23T14:08:35.138Z,12.50
2018-09-23T14:11:03.986Z,12.60
2018-09-23T14:13:32.966Z,12.40
2018-09-23T14:16:01.822Z,12.40
2018-09-23T14:18:30.679Z,12.20
2018-09-23T14:20:59.535Z,12.20
2018-09-23T14:23:28.446Z,12.20
2018-09-23T14:25:57.300Z,12.20
2018-09-23T14:28:26.162Z,12.00
2018-09-23T14:30:55.011Z,12.00
2018-09-23T14:33:23.943Z,11.90
2018-09-23T14:35:52.822Z,12.00
2018-09-23T14:38:21.658Z,11.90
2018-09-23T14:40:50.606Z,11.90
2018-09-23T14:43:19.437Z,11.90
2018-09-23T14:45:48.298Z,11.90
2018-09-23T14:48:17.138Z,12.10
2018-09-23T14:50:46.008Z,12.10
2018-09-23T14:53:14.843Z,12.00
2018-09-23T14:55:43.689Z,12.10
2018-09-23T14:58:12.572Z,12.10
2018-09-23T15:00:41.478Z,12.10
2018-09-23T15:03:10.239Z,11.90
2018-09-23T15:05:39.186Z,11.90
2018-09-23T15:08:08.018Z,11.90
2018-09-23T15:10:37.139Z,12.00
2018-09-23T15:13:05.960Z,12.00
2018-09-23T15:15:34.799Z,12.20
2018-09-23T15:18:04.000Z,12.00
2018-09-23T15:20:32.870Z,12.00
2018-09-23T15:23:01.710Z,12.00
2018-09-23T15:25:30.563Z,12.10
2018-09-23T15:27:59.726Z,12.10
2018-09-23T15:30:28.567Z,12.00
2018-09-23T15:32:57.405Z,12.10
2018-09-23T15:35:26.238Z,12.00
2018-09-23T15:37:55.107Z,12.00
2018-09-23T15:40:23.923Z,11.90
2018-09-23T15:42:52.752Z,11.90
2018-09-23T15:45:21.644Z,12.00
2018-09-23T15:47:50.450Z,12.00
2018-09-23T15:52:47.948Z,11.70
2018-09-23T15:55:16.790Z,11.60
2018-09-23T15:57:45.641Z,11.60
2018-09-23T16:00:14.454Z,11.70
2018-09-23T16:02:43.282Z,11.80
2018-09-23T16:05:12.127Z,11.80
2018-09-23T16:07:40.970Z,11.70
2018-09-23T16:10:09.858Z,11.80
2018-09-23T16:12:38.699Z,11.80
2018-09-23T16:15:07.532Z,11.80
2018-09-23T16:17:36.370Z,11.80
2018-09-23T16:20:05.215Z,11.80
2018-09-23T16:22:34.062Z,11.70
2018-09-23T16:25:02.922Z,11.40
2018-09-23T16:27:31.746Z,11.50
2018-09-23T16:30:00.616Z,11.50
2018-09-23T16:32:29.431Z,11.40
2018-09-23T16:34:58.281Z,11.40
2018-09-23T16:37:27.181Z,11.40
2018-09-23T16:39:56.010Z,11.40
2018-09-23T16:42:24.838Z,11.40
2018-09-23T16:44:54.365Z,11.30
2018-09-23T16:47:23.223Z,11.30
2018-09-23T16:49:52.088Z,11.30
2018-09-23T16:52:20.902Z,11.30
2018-09-23T16:54:50.090Z,11.30
2018-09-23T16:57:18.882Z,11.20
2018-09-23T16:59:47.778Z,11.10
2018-09-23T17:02:16.615Z,11.10
2018-09-23T17:04:45.446Z,11.30
2018-09-23T17:07:14.314Z,11.20
2018-09-23T17:09:43.122Z,11.30
2018-09-23T17:12:11.962Z,11.40
2018-09-23T17:14:40.798Z,11.40
2018-09-23T17:17:09.637Z,11.50
2018-09-23T17:22:07.371Z,11.50
2018-09-23T17:24:36.206Z,11.60
2018-09-23T17:27:05.192Z,11.60
2018-09-23T17:29:34.074Z,11.50
2018-09-23T17:32:02.879Z,11.50
2018-09-23T17:34:31.710Z,11.40
2018-09-23T17:37:01.162Z,11.40
2018-09-23T17:39:29.999Z,11.40
2018-09-23T17:41:58.855Z,11.30
2018-09-23T17:44:27.726Z,11.30
2018-09-23T17:46:56.562Z,11.30
2018-09-23T17:49:25.598Z,11.10
2018-09-23T17:51:54.435Z,11.10
2018-09-23T17:54:23.270Z,11.10
2018-09-23T17:56:52.110Z,11.20
2018-09-23T17:59:20.937Z,11.10
2018-09-23T18:01:49.809Z,11.20
2018-09-23T18:04:18.606Z,11.10
2018-09-23T18:06:47.451Z,11.10
2018-09-23T18:09:16.321Z,11.20
2018-09-23T18:11:45.651Z,11.00
2018-09-23T18:14:14.481Z,11.00
2018-09-23T18:16:45.151Z,11.10
2018-09-23T18:19:13.978Z,11.10
2018-09-23T18:21:42.832Z,11.00
2018-09-23T18:24:11.655Z,11.10
2018-09-23T18:26:40.498Z,11.10
2018-09-23T18:29:09.702Z,11.20
2018-09-23T18:31:38.534Z,10.80
2018-09-23T18:34:07.839Z,11.10
2018-09-23T18:36:36.675Z,11.10
2018-09-23T18:39:07.669Z,11.20
2018-09-23T18:41:36.507Z,11.10
2018-09-23T18:44:05.629Z,11.10
2018-09-23T18:46:34.454Z,11.10
2018-09-23T18:49:03.290Z,11.00
2018-09-23T18:51:32.129Z,11.00
2018-09-23T18:54:06.382Z,11.00
2018-09-23T18:56:35.210Z,11.00
2018-09-23T18:59:04.055Z,11.00
2018-09-23T19:01:32.890Z,11.10
2018-09-23T19:04:01.761Z,11.00
2018-09-23T19:06:30.563Z,11.00
2018-09-23T19:08:59.403Z,11.00
2018-09-23T19:11:28.266Z,10.90
2018-09-23T19:13:57.122Z,11.00
2018-09-23T19:16:30.682Z,11.00
2018-09-23T19:18:59.727Z,11.00
2018-09-23T19:21:29.394Z,11.10
2018-09-23T19:23:58.658Z,11.10
2018-09-23T19:26:27.805Z,11.10
2018-09-23T19:28:56.748Z,11.10
2018-09-23T19:31:25.623Z,11.10
2018-09-23T19:33:54.470Z,11.00
2018-09-23T19:36:23.303Z,11.00
2018-09-23T19:38:52.145Z,11.00
2018-09-23T19:41:21.286Z,10.90
2018-09-23T19:43:50.081Z,10.80
2018-09-23T19:46:18.972Z,10.90
2018-09-23T19:48:47.905Z,10.80
2018-09-23T19:51:16.746Z,10.80
2018-09-23T19:53:45.582Z,10.80
2018-09-23T19:56:14.415Z,10.90
2018-09-23T19:58:43.295Z,10.90
2018-09-23T20:01:12.130Z,10.70
2018-09-23T20:03:40.966Z,10.70
2018-09-23T20:06:09.807Z,10.70
2018-09-23T20:08:38.649Z,10.80
2018-09-23T20:13:35.967Z,10.80
2018-09-23T20:16:04.807Z,10.80
2018-09-23T20:18:33.642Z,10.80
2018-09-23T20:21:03.102Z,10.80
2018-09-23T20:23:31.936Z,10.90
2018-09-23T20:26:00.746Z,10.90
2018-09-23T20:28:29.582Z,10.90
2018-09-23T20:30:58.438Z,10.90
2018-09-23T20:33:27.304Z,10.90
2018-09-23T20:35:56.183Z,10.90
2018-09-23T20:38:24.990Z,11.00
2018-09-23T20:40:53.858Z,11.10
2018-09-23T20:43:22.770Z,11.10
2018-09-23T20:45:51.650Z,11.10
2018-09-23T20:48:20.486Z,11.20
2018-09-23T20:50:49.337Z,11.10
2018-09-23T20:53:18.190Z,11.10
2018-09-23T20:55:47.146Z,11.00
2018-09-23T20:58:15.993Z,11.00
2018-09-23T21:00:44.851Z,10.90
2018-09-23T21:03:13.695Z,10.90
2018-09-23T21:05:42.535Z,11.00
2018-09-23T21:08:11.383Z,11.00
2018-09-23T21:10:40.238Z,11.00
2018-09-23T21:13:09.091Z,11.00
2018-09-23T21:15:37.964Z,11.10
2018-09-23T21:18:06.831Z,11.10
2018-09-23T21:20:36.350Z,11.10
2018-09-23T21:23:05.311Z,11.20
2018-09-23T21:25:34.177Z,11.20
2018-09-23T21:28:03.007Z,11.10
2018-09-23T21:30:31.874Z,11.00
2018-09-23T21:33:00.707Z,11.10
2018-09-23T21:35:29.545Z,11.00
2018-09-23T21:37:58.719Z,11.00
2018-09-23T21:40:27.558Z,10.90
2018-09-23T21:42:56.384Z,10.90
2018-09-23T21:45:25.313Z,10.70
2018-09-23T21:47:54.103Z,10.80
2018-09-23T21:50:22.942Z,10.60
2018-09-23T21:52:51.815Z,10.60
2018-09-23T21:55:20.666Z,10.60
2018-09-23T21:57:49.514Z,10.70
2018-09-23T22:00:18.618Z,10.80
2018-09-23T22:02:47.471Z,10.80
2018-09-23T22:05:16.373Z,10.70
2018-09-23T22:07:45.251Z,10.70
2018-09-23T22:10:14.090Z,10.60
2018-09-23T22:12:42.922Z,10.60
2018-09-23T22:15:16.014Z,10.50
2018-09-23T22:17:44.853Z,10.50
2018-09-23T22:20:13.699Z,10.50
2018-09-23T22:22:42.531Z,10.50
2018-09-23T22:25:11.390Z,10.40
2018-09-23T22:27:40.466Z,10.50
2018-09-23T22:30:09.361Z,10.60
2018-09-23T22:32:38.153Z,10.60
2018-09-23T22:35:06.994Z,10.40
2018-09-23T22:37:36.234Z,10.40
2018-09-23T22:40:05.921Z,10.30
2018-09-23T22:42:35.169Z,10.30
2018-09-23T22:45:04.439Z,10.40
2018-09-23T22:47:33.294Z,10.40
2018-09-23T22:50:02.422Z,10.40
2018-09-23T22:52:31.274Z,10.40
2018-09-23T22:55:00.110Z,10.30
2018-09-23T22:57:28.963Z,10.20
2018-09-23T22:59:57.791Z,10.30
2018-09-23T23:02:26.631Z,10.20
2018-09-23T23:04:55.470Z,10.20
2018-09-23T23:07:24.314Z,10.30
2018-09-23T23:09:53.146Z,10.30
2018-09-23T23:12:21.991Z,10.20
2018-09-23T23:14:50.919Z,10.10
2018-09-23T23:17:19.766Z,10.10
2018-09-23T23:19:48.602Z,10.10
2018-09-23T23:22:17.485Z,10.00
2018-09-23T23:24:46.335Z,10.00
2018-09-23T23:27:15.205Z,10.00
2018-09-23T23:29:44.047Z,10.10
2018-09-23T23:32:12.890Z,10.10
2018-09-23T23:34:41.730Z,10.20
2018-09-23T23:37:10.566Z,10.10
2018-09-23T23:39:39.394Z,10.10
2018-09-23T23:42:08.229Z,10.10
2018-09-23T23:44:37.070Z,10.00
2018-09-23T23:47:06.305Z,10.10
2018-09-23T23:49:35.105Z,10.10
2018-09-23T23:52:03.942Z,10.10
2018-09-23T23:54:32.774Z,10.20
2018-09-23T23:57:01.622Z,10.10
2018-09-23T23:59:30.498Z,10.10
